createdAt,value
2023-04-17T00:02:27.023Z,18.49
2023-04-17T00:05:32.028Z,18.38
2023-04-17T00:08:34.883Z,18.36
2023-04-17T00:11:37.133Z,18.38
2023-04-17T00:14:39.325Z,18.40
2023-04-17T00:17:41.634Z,18.42
2023-04-17T00:20:43.876Z,18.50
2023-04-17T00:23:46.267Z,18.58
2023-04-17T00:26:48.607Z,18.61
2023-04-17T00:29:53.246Z,18.51
2023-04-17T00:32:55.995Z,18.56
2023-04-17T00:35:58.482Z,18.59
2023-04-17T00:39:00.822Z,18.59
2023-04-17T00:42:03.315Z,18.55
2023-04-17T00:45:06.242Z,18.48
2023-04-17T00:48:10.184Z,18.46
2023-04-17T00:51:12.407Z,18.40
2023-04-17T00:54:14.904Z,18.47
2023-04-17T00:57:17.154Z,18.45
2023-04-17T01:00:19.353Z,18.46
2023-04-17T01:03:22.119Z,18.43
2023-04-17T01:06:24.588Z,18.37
2023-04-17T01:09:27.646Z,18.40
2023-04-17T01:12:30.774Z,18.26
2023-04-17T01:15:35.880Z,18.22
2023-04-17T01:18:37.987Z,18.26
2023-04-17T01:21:40.984Z,18.24
2023-04-17T01:24:43.387Z,18.26
2023-04-17T01:27:45.764Z,18.34
2023-04-17T01:30:47.899Z,18.23
2023-04-17T01:33:51.183Z,18.16
2023-04-17T01:36:55.011Z,18.06
2023-04-17T01:39:58.803Z,18.07
2023-04-17T01:43:02.624Z,18.09
2023-04-17T01:46:04.945Z,18.05
2023-04-17T01:49:07.027Z,18.03
2023-04-17T01:52:09.152Z,18.02
2023-04-17T01:55:11.746Z,18.00
2023-04-17T01:58:13.746Z,17.92
2023-04-17T02:01:15.950Z,18.02
2023-04-17T02:04:18.205Z,18.02
2023-04-17T02:07:20.765Z,18.00
2023-04-17T02:10:22.911Z,18.00
2023-04-17T02:13:25.480Z,18.03
2023-04-17T02:16:29.184Z,18.00
2023-04-17T02:19:33.072Z,17.98
2023-04-17T02:22:38.016Z,18.03
2023-04-17T02:25:40.155Z,17.87
2023-04-17T02:28:45.715Z,17.88
2023-04-17T02:31:47.865Z,17.80
2023-04-17T02:34:50.704Z,17.74
2023-04-17T02:37:53.933Z,17.84
2023-04-17T02:40:59.221Z,17.74
2023-04-17T02:44:04.334Z,17.83
2023-04-17T02:47:06.776Z,17.78
2023-04-17T02:50:09.844Z,17.60
2023-04-17T02:53:20.720Z,17.62
2023-04-17T02:56:24.089Z,17.66
2023-04-17T02:59:29.128Z,17.71
2023-04-17T03:02:31.605Z,17.76
2023-04-17T03:05:33.976Z,17.80
2023-04-17T03:08:39.017Z,17.80
2023-04-17T03:11:41.905Z,17.83
2023-04-17T03:14:44.209Z,17.74
2023-04-17T03:17:48.623Z,17.65
2023-04-17T03:20:51.134Z,17.59
2023-04-17T03:23:53.181Z,17.50
2023-04-17T03:26:58.121Z,17.56
2023-04-17T03:30:01.497Z,17.56
2023-04-17T03:33:03.956Z,17.54
2023-04-17T03:36:07.766Z,17.41
2023-04-17T03:39:11.692Z,17.46
2023-04-17T03:42:15.475Z,17.44
2023-04-17T03:45:17.653Z,17.34
2023-04-17T03:48:19.829Z,17.39
2023-04-17T03:51:23.759Z,17.38
2023-04-17T03:54:27.684Z,17.51
2023-04-17T03:57:30.968Z,17.56
2023-04-17T04:00:33.394Z,17.50
2023-04-17T04:03:41.864Z,17.52
2023-04-17T04:06:45.241Z,17.54
2023-04-17T04:09:50.438Z,17.41
2023-04-17T04:12:55.538Z,17.40
2023-04-17T04:15:59.614Z,17.45
2023-04-17T04:19:04.732Z,17.43
2023-04-17T04:22:08.031Z,17.57
2023-04-17T04:25:19.773Z,17.56
2023-04-17T04:28:28.342Z,18.57
2023-04-17T04:31:31.089Z,19.97
2023-04-17T04:34:36.603Z,20.77
2023-04-17T04:37:39.516Z,20.38
2023-04-17T04:40:52.970Z,20.77
2023-04-17T04:43:55.992Z,21.63
2023-04-17T04:46:59.043Z,21.15
2023-04-17T04:50:02.016Z,20.95
2023-04-17T04:53:04.261Z,20.85
2023-04-17T04:56:17.662Z,20.88
2023-04-17T04:59:23.559Z,20.88
2023-04-17T05:02:35.886Z,20.64
2023-04-17T05:05:41.329Z,20.43
2023-04-17T05:08:45.936Z,20.20
2023-04-17T05:11:50.170Z,20.04
2023-04-17T05:15:02.804Z,19.85
2023-04-17T05:18:05.433Z,19.68
2023-04-17T05:21:09.466Z,19.55
2023-04-17T05:24:13.940Z,19.37
2023-04-17T05:27:17.079Z,19.33
2023-04-17T05:30:20.339Z,19.30
2023-04-17T05:33:28.043Z,19.20
2023-04-17T05:36:35.900Z,19.13
2023-04-17T05:39:40.487Z,19.06
2023-04-17T05:42:43.854Z,19.02
2023-04-17T05:45:48.543Z,18.99
2023-04-17T05:48:51.462Z,18.86
2023-04-17T05:51:57.119Z,18.86
2023-04-17T05:55:02.249Z,18.78
2023-04-17T05:58:16.832Z,18.72
2023-04-17T06:01:26.950Z,18.78
2023-04-17T06:04:31.158Z,18.64
2023-04-17T06:07:40.604Z,18.46
2023-04-17T06:10:48.863Z,18.38
2023-04-17T06:13:56.996Z,18.38
2023-04-17T06:17:00.991Z,18.43
2023-04-17T06:20:06.698Z,18.36
2023-04-17T06:23:10.356Z,18.32
2023-04-17T06:26:13.150Z,18.26
2023-04-17T06:29:19.153Z,18.42
2023-04-17T06:32:21.422Z,18.47
2023-04-17T06:35:23.831Z,18.52
2023-04-17T06:38:32.498Z,18.55
2023-04-17T06:41:34.791Z,18.53
2023-04-17T06:44:38.664Z,18.54
2023-04-17T06:47:48.037Z,18.58
2023-04-17T06:50:52.574Z,18.56
2023-04-17T06:53:55.009Z,18.77
2023-04-17T06:56:57.614Z,18.96
2023-04-17T07:00:03.036Z,19.04
2023-04-17T07:03:08.396Z,19.16
2023-04-17T07:06:10.868Z,19.31
2023-04-17T07:09:13.255Z,19.30
2023-04-17T07:12:16.006Z,19.20
2023-04-17T07:15:19.763Z,19.26
2023-04-17T07:18:23.872Z,19.29
2023-04-17T07:21:27.116Z,19.24
2023-04-17T07:24:29.186Z,19.28
2023-04-17T07:27:31.326Z,19.20
2023-04-17T07:30:33.872Z,19.18
2023-04-17T07:33:39.629Z,19.13
2023-04-17T07:36:43.146Z,19.13
2023-04-17T07:39:45.596Z,19.10
2023-04-17T07:42:47.822Z,19.11
2023-04-17T07:45:50.020Z,19.50
2023-04-17T07:48:52.199Z,19.84
2023-04-17T07:51:54.577Z,20.06
2023-04-17T07:54:56.882Z,20.14
2023-04-17T07:57:59.091Z,19.91
2023-04-17T08:01:05.756Z,19.67
2023-04-17T08:04:11.030Z,19.52
2023-04-17T08:07:14.625Z,19.38
2023-04-17T08:10:18.724Z,19.30
2023-04-17T08:13:21.318Z,19.23
2023-04-17T08:16:23.621Z,19.24
2023-04-17T08:19:26.524Z,19.32
2023-04-17T08:22:29.310Z,19.56
2023-04-17T08:25:35.012Z,19.57
2023-04-17T08:28:37.445Z,19.37
2023-04-17T08:31:40.655Z,19.21
2023-04-17T08:34:44.800Z,19.07
2023-04-17T08:37:47.205Z,19.15
2023-04-17T08:40:52.482Z,19.14
2023-04-17T08:43:58.652Z,19.10
2023-04-17T08:47:15.288Z,18.94
2023-04-17T08:50:22.269Z,18.92
2023-04-17T08:53:25.668Z,18.85
2023-04-17T08:56:29.858Z,18.82
2023-04-17T08:59:32.653Z,18.84
2023-04-17T09:02:52.791Z,18.78
2023-04-17T09:05:57.880Z,18.77
2023-04-17T09:09:04.463Z,18.70
2023-04-17T09:12:13.584Z,18.79
2023-04-17T09:15:16.946Z,18.62
2023-04-17T09:18:26.879Z,18.59
2023-04-17T09:21:29.402Z,18.61
2023-04-17T09:24:35.851Z,18.58
2023-04-17T09:27:38.738Z,18.62
2023-04-17T09:30:42.556Z,18.67
2023-04-17T09:34:09.458Z,18.63
2023-04-17T09:37:11.578Z,18.68
2023-04-17T09:40:13.744Z,18.65
2023-04-17T09:43:16.422Z,18.60
2023-04-17T09:46:45.354Z,18.66
2023-04-17T09:49:56.312Z,18.55
2023-04-17T09:53:05.346Z,18.53
2023-04-17T09:56:13.931Z,18.49
2023-04-17T09:59:20.145Z,18.45
2023-04-17T10:02:39.829Z,18.58
2023-04-17T10:05:53.964Z,18.63
2023-04-17T10:08:57.526Z,18.64
2023-04-17T10:12:02.230Z,18.65
2023-04-17T10:15:08.225Z,18.59
2023-04-17T10:18:24.825Z,18.54
2023-04-17T10:21:30.473Z,18.63
2023-04-17T10:24:33.954Z,18.62
2023-04-17T10:28:13.594Z,18.71
2023-04-17T10:35:50.590Z,18.53
2023-04-17T10:50:00.375Z,18.39
2023-04-17T10:53:04.806Z,18.49
2023-04-17T10:56:07.782Z,18.53
2023-04-17T10:59:14.817Z,18.41
2023-04-17T11:02:18.087Z,18.48
2023-04-17T11:05:21.177Z,18.45
2023-04-17T11:08:23.863Z,18.54
2023-04-17T11:11:40.605Z,18.51
2023-04-17T11:14:48.598Z,18.36
2023-04-17T11:17:51.194Z,18.37
2023-04-17T11:20:53.500Z,18.41
2023-04-17T11:23:55.730Z,18.32
2023-04-17T11:27:00.070Z,18.25
2023-04-17T11:30:03.815Z,18.22
2023-04-17T11:33:08.244Z,18.10
2023-04-17T11:36:48.835Z,18.03
2023-04-17T11:39:51.158Z,18.25
2023-04-17T11:42:55.681Z,18.16
2023-04-17T11:46:04.267Z,18.21
2023-04-17T11:49:27.877Z,18.16
2023-04-17T11:53:23.963Z,18.29
2023-04-17T11:56:29.776Z,18.23
2023-04-17T11:59:37.395Z,18.14
2023-04-17T12:02:39.696Z,18.23
2023-04-17T12:05:42.163Z,18.24
2023-04-17T12:09:07.233Z,18.25
2023-04-17T12:12:09.384Z,18.22
2023-04-17T12:15:14.810Z,18.17
2023-04-17T12:18:23.225Z,18.18
2023-04-17T12:21:28.140Z,18.21
2023-04-17T12:24:30.387Z,18.16
2023-04-17T12:27:39.044Z,18.23
2023-04-17T12:30:42.840Z,18.16
2023-04-17T12:33:45.904Z,18.15
2023-04-17T12:36:50.624Z,18.24
2023-04-17T12:39:54.281Z,18.25
2023-04-17T12:43:00.024Z,18.22
2023-04-17T12:46:07.278Z,18.28
2023-04-17T12:49:09.574Z,18.32
2023-04-17T12:52:12.808Z,18.26
2023-04-17T12:55:14.899Z,18.26
2023-04-17T12:58:17.137Z,18.30
2023-04-17T13:01:20.511Z,18.33
2023-04-17T13:04:23.233Z,18.17
2023-04-17T13:07:37.043Z,18.10
2023-04-17T13:10:39.199Z,18.17
2023-04-17T13:13:50.288Z,18.16
2023-04-17T13:18:40.832Z,18.37
2023-04-17T13:21:44.513Z,18.38
2023-04-17T13:24:48.225Z,18.23
2023-04-17T13:27:59.515Z,18.33
2023-04-17T13:31:01.789Z,18.39
2023-04-17T13:34:54.372Z,18.17
2023-04-17T13:38:02.481Z,18.28
2023-04-17T13:41:04.596Z,18.29
2023-04-17T13:44:06.769Z,18.34
2023-04-17T13:47:10.188Z,18.38
2023-04-17T13:50:12.402Z,18.40
2023-04-17T13:53:14.643Z,18.36
2023-04-17T13:56:19.901Z,18.37
2023-04-17T13:59:24.480Z,18.25
2023-04-17T14:02:27.274Z,18.38
2023-04-17T14:05:30.382Z,18.41
2023-04-17T14:08:32.579Z,18.40
2023-04-17T14:11:35.592Z,18.46
2023-04-17T14:14:38.254Z,18.43
2023-04-17T14:17:43.448Z,18.43
2023-04-17T14:20:48.278Z,18.41
2023-04-17T14:23:54.145Z,18.55
2023-04-17T14:26:58.222Z,18.75
2023-04-17T14:30:04.183Z,18.95
2023-04-17T14:33:07.376Z,19.10
2023-04-17T14:36:10.708Z,19.26
2023-04-17T14:39:13.207Z,19.38
2023-04-17T14:42:22.803Z,19.65
2023-04-17T14:45:30.942Z,19.76
2023-04-17T14:48:44.260Z,19.77
2023-04-17T14:51:56.801Z,19.83
2023-04-17T14:54:58.928Z,19.78
2023-04-17T14:58:03.495Z,19.76
2023-04-17T15:01:05.786Z,19.73
2023-04-17T15:04:08.309Z,19.59
2023-04-17T15:07:10.852Z,19.55
2023-04-17T15:10:14.603Z,19.46
2023-04-17T15:13:17.682Z,19.41
2023-04-17T15:16:22.470Z,19.34
2023-04-17T15:19:25.065Z,19.40
2023-04-17T15:22:27.950Z,19.37
2023-04-17T15:25:30.305Z,19.35
2023-04-17T15:28:34.099Z,19.27
2023-04-17T15:31:38.616Z,19.26
2023-04-17T15:34:43.215Z,19.24
2023-04-17T15:37:46.004Z,19.22
2023-04-17T15:45:43.321Z,19.18
2023-04-17T15:53:41.668Z,19.03
2023-04-17T16:02:16.053Z,18.85
2023-04-17T16:05:19.343Z,18.77
2023-04-17T16:08:22.329Z,18.80
2023-04-17T16:24:47.764Z,18.79
2023-04-17T16:27:50.962Z,18.74
2023-04-17T16:30:53.530Z,18.63
2023-04-17T16:33:57.506Z,18.59
2023-04-17T16:36:59.535Z,18.68
2023-04-17T16:43:48.865Z,18.51
2023-04-17T16:47:11.988Z,18.60
2023-04-17T16:50:16.975Z,18.50
2023-04-17T16:53:21.389Z,18.45
2023-04-17T16:56:24.663Z,18.41
2023-04-17T16:59:27.882Z,18.37
2023-04-17T17:02:33.111Z,18.34
2023-04-17T17:05:37.512Z,18.49
2023-04-17T17:08:52.504Z,18.33
2023-04-17T17:11:59.355Z,18.33
2023-04-17T17:15:05.491Z,18.40
2023-04-17T17:18:09.025Z,18.44
2023-04-17T17:21:20.593Z,18.47
2023-04-17T17:28:53.178Z,18.60
2023-04-17T17:33:12.734Z,18.66
2023-04-17T17:41:58.197Z,18.51
2023-04-17T17:45:03.235Z,18.49
2023-04-17T17:48:13.841Z,18.54
2023-04-17T17:51:42.008Z,18.52
2023-04-17T17:54:44.302Z,18.50
2023-04-17T18:07:49.614Z,18.32
2023-04-17T18:11:04.619Z,18.29
2023-04-17T18:14:30.385Z,18.14
2023-04-17T18:17:48.017Z,18.16
2023-04-17T18:21:06.876Z,18.15
2023-04-17T18:24:16.855Z,18.08
2023-04-17T18:27:29.722Z,18.15
2023-04-17T18:30:32.279Z,18.18
2023-04-17T18:49:36.585Z,18.14
2023-04-17T18:53:49.614Z,18.09
2023-04-17T18:58:08.567Z,18.08
2023-04-17T19:18:10.267Z,17.99
2023-04-17T19:33:00.290Z,17.97
2023-04-17T19:46:41.419Z,17.71
2023-04-17T19:49:47.915Z,17.76
2023-04-17T19:52:51.197Z,17.86
2023-04-17T19:55:53.482Z,17.76
2023-04-17T19:59:01.297Z,17.69
2023-04-17T20:02:14.063Z,17.78
2023-04-17T20:05:21.054Z,17.70
2023-04-17T20:08:24.046Z,17.77
2023-04-17T20:16:34.787Z,17.73
2023-04-17T20:19:38.502Z,17.79
2023-04-17T20:22:41.234Z,17.68
2023-04-17T20:26:12.205Z,17.65
2023-04-17T20:29:14.896Z,17.55
2023-04-17T20:32:20.678Z,17.69
2023-04-17T20:35:26.577Z,17.53
2023-04-17T20:38:35.470Z,17.51
2023-04-17T20:46:13.339Z,17.51
2023-04-17T20:49:23.681Z,17.51
2023-04-17T20:52:26.133Z,17.50
2023-04-17T20:55:30.275Z,17.41
2023-04-17T21:01:54.097Z,17.57
2023-04-17T21:04:59.230Z,17.55
2023-04-17T21:08:49.021Z,17.57
2023-04-17T21:13:03.227Z,17.59
2023-04-17T21:16:58.217Z,17.53
2023-04-17T21:20:08.068Z,17.61
2023-04-17T21:23:10.603Z,17.55
2023-04-17T21:26:13.092Z,17.58
2023-04-17T21:29:15.528Z,17.55
2023-04-17T21:32:17.812Z,17.55
2023-04-17T21:35:19.960Z,17.47
2023-04-17T21:38:22.061Z,17.36
2023-04-17T21:41:24.315Z,17.42
2023-04-17T21:44:27.484Z,17.40
2023-04-17T21:47:29.583Z,17.45
2023-04-17T21:50:31.775Z,17.35
2023-04-17T21:53:36.279Z,17.40
2023-04-17T21:56:39.687Z,17.39
2023-04-17T21:59:42.055Z,17.29
2023-04-17T22:02:45.773Z,17.38
2023-04-17T22:05:50.842Z,17.40
2023-04-17T22:08:52.933Z,17.43
2023-04-17T22:11:55.195Z,17.36
2023-04-17T22:14:57.372Z,17.33
2023-04-17T22:17:59.476Z,17.34
2023-04-17T22:21:02.692Z,17.30
2023-04-17T22:24:07.059Z,17.36
2023-04-17T22:27:09.264Z,17.39
2023-04-17T22:30:14.401Z,17.32
2023-04-17T22:33:18.609Z,17.31
2023-04-17T22:36:35.089Z,17.13
2023-04-17T22:40:17.781Z,17.06
2023-04-17T22:43:20.478Z,16.98
2023-04-17T22:47:20.136Z,17.07
2023-04-17T22:50:38.484Z,17.14
2023-04-17T22:54:11.541Z,16.99
2023-04-17T22:57:42.885Z,16.94
2023-04-17T23:00:45.095Z,17.13
2023-04-17T23:03:47.241Z,17.04
2023-04-17T23:06:52.059Z,17.04
2023-04-17T23:09:55.130Z,17.02
2023-04-17T23:12:57.318Z,17.06
2023-04-17T23:15:59.452Z,17.04
2023-04-17T23:19:01.591Z,17.00
2023-04-17T23:22:03.826Z,17.05
2023-04-17T23:25:06.834Z,16.97
2023-04-17T23:28:09.098Z,16.97
2023-04-17T23:31:11.881Z,16.97
2023-04-17T23:34:14.803Z,16.90
2023-04-17T23:37:18.161Z,16.90
2023-04-17T23:40:20.365Z,16.85
2023-04-17T23:43:22.478Z,16.84
2023-04-17T23:46:25.968Z,16.84
2023-04-17T23:49:28.568Z,16.89
2023-04-17T23:52:31.056Z,16.83
2023-04-17T23:55:33.059Z,16.80
2023-04-17T23:58:35.202Z,16.76
